createdAt,value
2022-10-17T00:00:57.968Z,9.23
2022-10-17T00:03:25.013Z,8.73
2022-10-17T00:05:52.168Z,9.38
2022-10-17T00:08:20.186Z,8.38
2022-10-17T00:11:01.226Z,10.32
2022-10-17T00:13:28.800Z,9.02
2022-10-17T00:15:55.869Z,8.80
2022-10-17T00:18:23.171Z,9.90
2022-10-17T00:20:50.916Z,9.25
2022-10-17T00:23:18.906Z,9.30
2022-10-17T00:25:45.959Z,9.90
2022-10-17T00:28:15.052Z,9.45
2022-10-17T00:30:42.133Z,9.35
2022-10-17T00:33:09.115Z,9.65
2022-10-17T00:35:36.132Z,10.50
2022-10-17T00:38:03.167Z,9.93
2022-10-17T00:40:30.124Z,9.95
2022-10-17T00:42:57.184Z,10.38
2022-10-17T00:45:31.360Z,9.75
2022-10-17T00:48:09.494Z,9.88
2022-10-17T00:50:40.054Z,10.65
2022-10-17T00:53:09.522Z,10.85
2022-10-17T00:55:47.545Z,11.07
2022-10-17T00:58:14.784Z,10.98
2022-10-17T01:00:48.826Z,10.98
2022-10-17T01:03:16.916Z,9.82
2022-10-17T01:05:44.263Z,11.80
2022-10-17T01:08:12.611Z,10.05
2022-10-17T01:11:04.570Z,11.73
2022-10-17T01:14:03.333Z,11.13
2022-10-17T01:16:54.664Z,11.60
2022-10-17T01:19:41.571Z,11.63
2022-10-17T01:22:12.193Z,11.13
2022-10-17T01:24:57.112Z,10.52
2022-10-17T01:27:49.801Z,11.30
2022-10-17T01:30:54.993Z,12.18
2022-10-17T01:34:12.927Z,11.38
2022-10-17T01:36:48.715Z,11.48
2022-10-17T01:39:48.327Z,11.70
2022-10-17T01:42:45.831Z,11.48
2022-10-17T01:45:48.531Z,11.05
2022-10-17T01:48:22.491Z,10.55
2022-10-17T01:50:59.674Z,12.02
2022-10-17T01:53:35.855Z,12.15
2022-10-17T01:56:06.989Z,11.27
2022-10-17T01:58:43.511Z,11.95
2022-10-17T02:01:12.979Z,12.38
2022-10-17T02:03:43.709Z,11.55
2022-10-17T02:06:10.874Z,12.90
2022-10-17T02:08:50.412Z,13.05
2022-10-17T02:11:26.832Z,12.80
2022-10-17T02:14:26.454Z,12.95
2022-10-17T02:17:35.501Z,12.43
2022-10-17T02:20:24.979Z,12.55
2022-10-17T02:22:59.558Z,12.35
2022-10-17T02:25:55.579Z,12.82
2022-10-17T02:29:00.598Z,12.23
2022-10-17T02:31:40.101Z,11.82
2022-10-17T02:34:22.775Z,12.45
2022-10-17T02:36:59.877Z,11.95
2022-10-17T02:39:29.313Z,13.05
2022-10-17T02:42:00.557Z,12.27
2022-10-17T02:44:29.670Z,11.48
2022-10-17T02:47:27.436Z,13.00
2022-10-17T02:49:58.539Z,12.13
2022-10-17T02:52:45.520Z,11.70
2022-10-17T02:55:39.958Z,11.77
2022-10-17T02:58:21.223Z,12.80
2022-10-17T03:00:49.056Z,11.48
2022-10-17T03:03:29.340Z,12.88
2022-10-17T03:05:56.732Z,12.40
2022-10-17T03:08:24.444Z,13.30
2022-10-17T03:10:51.933Z,13.13
2022-10-17T03:13:19.176Z,13.20
2022-10-17T03:15:46.955Z,13.20
2022-10-17T03:18:14.246Z,13.10
2022-10-17T03:20:41.353Z,13.18
2022-10-17T03:23:08.419Z,12.10
2022-10-17T03:25:35.463Z,12.13
2022-10-17T03:28:02.427Z,13.35
2022-10-17T03:30:29.790Z,12.75
2022-10-17T03:32:59.199Z,10.95
2022-10-17T03:35:27.717Z,12.68
2022-10-17T03:37:56.256Z,11.88
2022-10-17T03:40:23.406Z,12.18
2022-10-17T03:42:51.016Z,12.63
2022-10-17T03:45:18.020Z,11.73
2022-10-17T03:47:45.023Z,11.25
2022-10-17T03:50:12.446Z,12.32
2022-10-17T03:52:39.555Z,11.38
2022-10-17T03:55:06.967Z,12.20
2022-10-17T03:57:36.624Z,12.35
2022-10-17T04:00:05.420Z,12.15
2022-10-17T04:02:32.521Z,12.32
2022-10-17T04:04:59.689Z,12.45
2022-10-17T04:09:53.734Z,12.15
2022-10-17T04:12:20.783Z,12.10
2022-10-17T04:14:47.795Z,11.93
2022-10-17T04:17:14.805Z,9.82
2022-10-17T04:19:41.911Z,11.70
2022-10-17T04:22:08.864Z,10.20
2022-10-17T04:24:35.838Z,10.73
2022-10-17T04:27:03.122Z,10.98
2022-10-17T04:29:30.160Z,11.18
2022-10-17T04:32:00.308Z,10.70
2022-10-17T04:34:27.334Z,9.60
2022-10-17T04:36:54.605Z,10.88
2022-10-17T04:39:21.753Z,10.50
2022-10-17T04:41:48.775Z,9.40
2022-10-17T04:44:15.786Z,10.43
2022-10-17T04:46:42.928Z,10.73
2022-10-17T04:49:10.004Z,9.93
2022-10-17T04:51:39.112Z,10.60
2022-10-17T04:54:06.553Z,11.38
2022-10-17T04:56:33.767Z,10.95
2022-10-17T04:59:00.795Z,10.63
2022-10-17T05:01:28.446Z,10.27
2022-10-17T05:03:56.126Z,10.77
2022-10-17T05:06:28.192Z,10.40
2022-10-17T05:08:55.580Z,10.05
2022-10-17T05:11:25.760Z,10.98
2022-10-17T05:13:56.635Z,10.38
2022-10-17T05:16:24.910Z,10.45
2022-10-17T05:18:55.122Z,10.95
2022-10-17T05:21:24.610Z,10.95
2022-10-17T05:23:52.196Z,9.90
2022-10-17T05:26:20.030Z,10.93
2022-10-17T05:28:47.445Z,10.70
2022-10-17T05:31:14.971Z,10.50
2022-10-17T05:33:42.322Z,10.73
2022-10-17T05:36:10.063Z,11.88
2022-10-17T05:38:37.310Z,11.23
2022-10-17T05:41:06.268Z,10.30
2022-10-17T05:43:34.685Z,11.80
2022-10-17T05:46:07.121Z,11.70
2022-10-17T05:48:34.828Z,10.68
2022-10-17T05:51:08.862Z,11.13
2022-10-17T05:53:39.972Z,10.88
2022-10-17T05:56:10.735Z,10.82
2022-10-17T05:58:50.340Z,10.50
2022-10-17T06:01:18.985Z,11.52
2022-10-17T06:03:46.006Z,10.70
2022-10-17T06:06:14.925Z,10.60
2022-10-17T06:08:42.780Z,11.27
2022-10-17T06:11:10.873Z,11.38
2022-10-17T06:13:39.296Z,11.07
2022-10-17T06:16:07.048Z,11.25
2022-10-17T06:18:34.435Z,10.75
2022-10-17T06:21:08.673Z,11.70
2022-10-17T06:23:35.996Z,11.32
2022-10-17T06:26:05.399Z,10.80
2022-10-17T06:28:33.793Z,10.20
2022-10-17T06:31:07.626Z,11.23
2022-10-17T06:33:35.443Z,11.70
2022-10-17T06:36:03.658Z,10.68
2022-10-17T06:38:30.761Z,10.70
2022-10-17T06:41:14.379Z,10.10
2022-10-17T06:43:45.721Z,10.63
2022-10-17T06:46:15.192Z,10.40
2022-10-17T06:48:42.591Z,9.57
2022-10-17T06:51:11.423Z,9.93
2022-10-17T06:53:40.292Z,9.98
2022-10-17T06:56:09.578Z,10.63
2022-10-17T06:58:39.699Z,9.25
2022-10-17T07:01:13.397Z,8.70
2022-10-17T07:03:41.371Z,8.20
2022-10-17T07:06:10.850Z,9.05
2022-10-17T07:08:38.143Z,8.40
2022-10-17T07:11:18.612Z,8.32
2022-10-17T07:13:49.206Z,7.88
2022-10-17T07:16:16.930Z,7.88
2022-10-17T07:18:44.429Z,8.48
2022-10-17T07:21:11.550Z,7.82
2022-10-17T07:23:39.900Z,8.13
2022-10-17T07:26:11.093Z,8.23
2022-10-17T07:28:42.375Z,7.90
2022-10-17T07:31:13.266Z,7.45
2022-10-17T07:33:41.071Z,7.93
2022-10-17T07:36:08.684Z,6.95
2022-10-17T07:38:37.010Z,7.45
2022-10-17T07:41:06.584Z,6.85
2022-10-17T07:43:34.775Z,7.50
2022-10-17T07:46:03.352Z,6.65
2022-10-17T07:48:30.798Z,7.47
2022-10-17T07:50:58.055Z,7.55
2022-10-17T07:53:25.130Z,7.32
2022-10-17T07:55:52.192Z,7.43
2022-10-17T07:58:19.238Z,6.93
2022-10-17T08:00:48.610Z,6.88
2022-10-17T08:03:15.812Z,6.30
2022-10-17T08:05:42.856Z,6.47
2022-10-17T08:08:09.838Z,6.03
2022-10-17T08:10:37.428Z,6.28
2022-10-17T08:13:04.503Z,5.45
2022-10-17T08:15:32.146Z,5.93
2022-10-17T08:17:59.630Z,5.90
2022-10-17T08:20:26.875Z,5.28
2022-10-17T08:22:55.423Z,5.38
2022-10-17T08:25:23.496Z,5.30
2022-10-17T08:27:51.880Z,5.38
2022-10-17T08:30:20.329Z,5.05
2022-10-17T08:32:47.340Z,4.90
2022-10-17T08:35:14.880Z,5.28
2022-10-17T08:37:42.025Z,5.47
2022-10-17T08:40:21.033Z,5.13
2022-10-17T08:43:12.511Z,4.95
2022-10-17T08:46:03.196Z,4.95
2022-10-17T08:48:42.623Z,5.20
2022-10-17T08:51:28.319Z,5.72
2022-10-17T08:54:10.093Z,5.18
2022-10-17T08:56:49.168Z,5.45
2022-10-17T08:59:29.595Z,4.82
2022-10-17T09:02:54.508Z,5.10
2022-10-17T09:05:35.111Z,4.75
2022-10-17T09:08:12.947Z,4.75
2022-10-17T09:11:20.109Z,5.53
2022-10-17T09:14:02.043Z,4.55
2022-10-17T09:16:37.684Z,4.78
2022-10-17T09:19:11.738Z,5.97
2022-10-17T09:21:54.160Z,6.53
2022-10-17T09:24:31.540Z,5.20
2022-10-17T09:26:59.366Z,5.47
2022-10-17T09:29:32.370Z,5.55
2022-10-17T09:32:17.487Z,5.80
2022-10-17T09:34:44.630Z,5.18
2022-10-17T09:37:15.440Z,5.25
2022-10-17T09:39:45.836Z,7.55
2022-10-17T09:42:21.461Z,8.05
2022-10-17T09:45:25.942Z,6.28
2022-10-17T09:48:04.615Z,6.55
2022-10-17T09:50:34.971Z,6.05
2022-10-17T09:53:31.122Z,6.35
2022-10-17T09:56:02.147Z,6.55
2022-10-17T09:59:01.906Z,6.28
2022-10-17T10:01:31.818Z,6.50
2022-10-17T10:04:15.747Z,7.13
2022-10-17T10:07:06.499Z,6.80
2022-10-17T10:09:39.360Z,7.35
2022-10-17T10:12:22.657Z,6.50
2022-10-17T10:14:53.338Z,7.55
2022-10-17T10:17:33.606Z,8.27
2022-10-17T10:20:01.681Z,8.85
2022-10-17T10:22:29.133Z,8.27
2022-10-17T10:25:15.172Z,9.35
2022-10-17T10:27:45.235Z,11.07
2022-10-17T10:30:29.961Z,9.70
2022-10-17T10:32:59.980Z,8.88
2022-10-17T10:35:33.389Z,9.57
2022-10-17T10:38:04.040Z,8.88
2022-10-17T10:40:47.135Z,8.95
2022-10-17T10:43:43.212Z,9.07
2022-10-17T10:46:27.310Z,8.75
2022-10-17T10:49:00.870Z,9.85
2022-10-17T10:51:40.210Z,8.43
2022-10-17T10:54:51.044Z,8.20
2022-10-17T10:57:23.049Z,7.70
2022-10-17T11:00:13.003Z,8.25
2022-10-17T11:03:17.751Z,8.25
2022-10-17T11:05:53.470Z,8.88
2022-10-17T11:08:50.262Z,9.73
2022-10-17T11:11:39.885Z,9.73
2022-10-17T11:14:38.205Z,9.32
2022-10-17T11:17:29.714Z,7.97
2022-10-17T11:20:19.959Z,8.30
2022-10-17T11:22:57.850Z,7.45
2022-10-17T11:25:40.743Z,8.23
2022-10-17T11:28:18.471Z,7.50
2022-10-17T11:31:10.121Z,7.53
2022-10-17T11:33:56.037Z,7.80
2022-10-17T11:36:30.109Z,9.82
2022-10-17T11:39:11.478Z,8.63
2022-10-17T11:41:55.491Z,10.00
2022-10-17T11:44:37.215Z,9.60
2022-10-17T11:47:26.436Z,10.65
2022-10-17T11:53:32.057Z,10.80
2022-10-17T11:56:00.603Z,8.70
2022-10-17T11:58:53.215Z,9.18
2022-10-17T12:01:46.969Z,9.85
2022-10-17T12:04:59.430Z,8.98
2022-10-17T12:08:26.990Z,9.00
2022-10-17T12:11:14.202Z,9.32
2022-10-17T12:13:41.974Z,8.93
2022-10-17T12:16:20.992Z,9.40
2022-10-17T12:19:11.877Z,9.82
2022-10-17T12:22:00.768Z,9.70
2022-10-17T12:24:52.959Z,10.40
2022-10-17T12:27:30.656Z,10.40
2022-10-17T12:30:12.505Z,10.52
2022-10-17T12:33:06.238Z,10.30
2022-10-17T12:35:36.814Z,11.35
2022-10-17T12:38:22.954Z,11.85
2022-10-17T12:40:53.120Z,11.82
2022-10-17T12:43:29.197Z,12.05
2022-10-17T12:46:02.166Z,12.10
2022-10-17T12:48:37.903Z,12.13
2022-10-17T12:54:15.505Z,10.52
2022-10-17T12:56:47.943Z,10.52
2022-10-17T12:59:26.181Z,10.27
2022-10-17T13:01:59.065Z,10.45
2022-10-17T13:04:28.913Z,9.63
2022-10-17T13:07:00.658Z,9.32
2022-10-17T13:09:37.574Z,9.15
2022-10-17T13:12:12.369Z,8.48
2022-10-17T13:14:42.876Z,7.82
2022-10-17T13:17:30.751Z,8.95
2022-10-17T13:19:58.611Z,8.95
2022-10-17T13:22:32.909Z,7.90
2022-10-17T13:25:19.187Z,7.43
2022-10-17T13:27:46.796Z,8.07
2022-10-17T13:30:32.627Z,8.38
2022-10-17T13:33:01.519Z,8.30
2022-10-17T13:35:58.732Z,8.95
2022-10-17T13:38:29.886Z,8.00
2022-10-17T13:41:05.914Z,8.45
2022-10-17T13:43:38.875Z,10.10
2022-10-17T13:46:32.640Z,9.00
2022-10-17T13:48:54.104Z,9.02
2022-10-17T13:51:21.832Z,8.80
2022-10-17T13:53:49.456Z,9.25
2022-10-17T13:56:29.319Z,8.65
2022-10-17T13:59:18.330Z,8.38
2022-10-17T14:01:45.808Z,8.70
2022-10-17T14:04:19.862Z,8.93
2022-10-17T14:06:51.288Z,7.80
2022-10-17T14:09:29.225Z,7.88
2022-10-17T14:12:11.131Z,8.40
2022-10-17T14:14:58.388Z,7.60
2022-10-17T14:17:30.063Z,8.77
2022-10-17T14:23:17.566Z,8.27
2022-10-17T14:25:41.131Z,7.65
2022-10-17T14:28:11.741Z,8.65
2022-10-17T14:30:56.204Z,9.10
2022-10-17T14:33:32.452Z,8.70
2022-10-17T14:36:02.556Z,8.30
2022-10-17T14:38:30.330Z,8.60
2022-10-17T14:41:30.562Z,8.45
2022-10-17T14:44:02.435Z,8.73
2022-10-17T14:46:29.605Z,8.55
2022-10-17T14:49:21.735Z,8.45
2022-10-17T14:52:29.209Z,8.50
2022-10-17T14:54:58.009Z,7.40
2022-10-17T14:57:28.272Z,7.57
2022-10-17T14:59:57.235Z,8.10
2022-10-17T15:02:30.742Z,8.38
2022-10-17T15:04:58.156Z,8.65
2022-10-17T15:07:25.198Z,8.32
2022-10-17T15:09:53.966Z,8.50
2022-10-17T15:12:25.346Z,8.90
2022-10-17T15:14:53.343Z,8.20
2022-10-17T15:17:31.310Z,8.55
2022-10-17T15:19:59.057Z,8.07
2022-10-17T15:22:26.501Z,8.63
2022-10-17T15:24:53.607Z,7.93
2022-10-17T15:27:24.017Z,7.55
2022-10-17T15:29:52.836Z,8.13
2022-10-17T15:32:19.867Z,8.55
2022-10-17T15:34:46.869Z,8.55
2022-10-17T15:37:20.938Z,9.02
2022-10-17T15:39:54.704Z,9.48
2022-10-17T15:42:27.608Z,11.00
2022-10-17T15:44:55.345Z,11.80
2022-10-17T15:47:31.304Z,11.00
2022-10-17T15:50:00.464Z,9.73
2022-10-17T15:52:27.789Z,9.75
2022-10-17T15:54:57.341Z,9.70
2022-10-17T15:57:30.743Z,11.27
2022-10-17T16:00:00.274Z,10.27
2022-10-17T16:02:28.019Z,10.45
2022-10-17T16:04:55.161Z,9.93
2022-10-17T16:07:22.410Z,9.65
2022-10-17T16:09:49.488Z,10.80
2022-10-17T16:12:27.952Z,9.93
2022-10-17T16:14:55.570Z,10.45
2022-10-17T16:17:22.581Z,9.82
2022-10-17T16:19:50.074Z,9.30
2022-10-17T16:22:33.276Z,9.90
2022-10-17T16:25:07.853Z,10.30
2022-10-17T16:27:36.738Z,10.27
2022-10-17T16:30:08.671Z,10.07
2022-10-17T16:32:35.735Z,10.18
2022-10-17T16:35:02.904Z,10.05
2022-10-17T16:37:29.999Z,10.80
2022-10-17T16:39:56.966Z,9.82
2022-10-17T16:42:24.262Z,11.25
2022-10-17T16:44:51.418Z,9.80
2022-10-17T16:47:19.173Z,10.15
2022-10-17T16:49:46.401Z,11.27
2022-10-17T16:52:13.773Z,10.60
2022-10-17T16:54:41.008Z,11.60
2022-10-17T16:57:08.130Z,12.15
2022-10-17T16:59:35.181Z,11.13
2022-10-17T17:02:02.202Z,11.77
2022-10-17T17:04:29.325Z,11.45
2022-10-17T17:06:56.435Z,10.27
2022-10-17T17:09:23.653Z,10.20
2022-10-17T17:11:50.621Z,11.10
2022-10-17T17:14:17.569Z,11.75
2022-10-17T17:16:44.528Z,11.85
2022-10-17T17:19:15.165Z,11.20
2022-10-17T17:21:47.662Z,10.80
2022-10-17T17:24:15.112Z,10.77
2022-10-17T17:26:42.154Z,10.70
2022-10-17T17:29:10.935Z,10.18
2022-10-17T17:31:39.415Z,11.93
2022-10-17T17:34:06.453Z,11.82
2022-10-17T17:36:37.063Z,12.77
2022-10-17T17:39:07.872Z,13.02
2022-10-17T17:41:35.498Z,13.30
2022-10-17T17:44:04.087Z,14.02
2022-10-17T17:46:31.239Z,14.48
2022-10-17T17:48:58.533Z,14.02
2022-10-17T17:51:29.469Z,14.48
2022-10-17T17:53:57.083Z,14.27
2022-10-17T17:56:27.630Z,13.63
2022-10-17T17:59:00.803Z,14.32
2022-10-17T18:01:38.086Z,15.68
2022-10-17T18:04:08.721Z,14.13
2022-10-17T18:06:37.637Z,14.38
2022-10-17T18:09:06.552Z,15.25
2022-10-17T18:11:33.885Z,13.90
2022-10-17T18:14:05.399Z,15.10
2022-10-17T18:16:35.070Z,15.15
2022-10-17T18:19:08.891Z,16.10
2022-10-17T18:21:37.050Z,15.93
2022-10-17T18:24:04.912Z,16.33
2022-10-17T18:26:32.308Z,16.15
2022-10-17T18:28:59.434Z,15.05
2022-10-17T18:31:35.686Z,14.88
2022-10-17T18:34:05.026Z,16.15
2022-10-17T18:36:34.468Z,15.57
2022-10-17T18:39:02.697Z,14.75
2022-10-17T18:41:30.071Z,14.43
2022-10-17T18:43:57.752Z,15.95
2022-10-17T18:46:36.599Z,14.93
2022-10-17T18:49:03.794Z,13.50
2022-10-17T18:51:30.868Z,12.43
2022-10-17T18:53:58.821Z,14.15
2022-10-17T18:56:26.682Z,14.20
2022-10-17T18:58:57.038Z,13.43
2022-10-17T19:01:27.254Z,12.60
2022-10-17T19:03:57.484Z,12.75
2022-10-17T19:06:33.681Z,12.68
2022-10-17T19:09:05.023Z,11.55
2022-10-17T19:11:34.024Z,10.65
2022-10-17T19:14:03.889Z,10.80
2022-10-17T19:16:45.596Z,10.55
2022-10-17T19:19:25.766Z,11.52
2022-10-17T19:21:53.311Z,11.07
2022-10-17T19:24:27.521Z,10.68
2022-10-17T19:26:59.494Z,10.75
2022-10-17T19:29:28.727Z,10.13
2022-10-17T19:34:22.761Z,10.15
2022-10-17T19:36:50.205Z,10.43
2022-10-17T19:39:23.289Z,9.38
2022-10-17T19:41:50.465Z,9.40
2022-10-17T19:44:17.798Z,9.35
2022-10-17T19:46:46.941Z,9.50
2022-10-17T19:49:14.558Z,9.60
2022-10-17T19:51:42.219Z,9.40
2022-10-17T19:54:10.789Z,9.02
2022-10-17T19:56:38.278Z,9.95
2022-10-17T19:59:06.793Z,8.93
2022-10-17T20:01:38.905Z,9.48
2022-10-17T20:04:07.723Z,8.45
2022-10-17T20:06:35.353Z,9.05
2022-10-17T20:09:03.304Z,8.50
2022-10-17T20:11:30.597Z,8.20
2022-10-17T20:13:59.452Z,8.20
2022-10-17T20:16:33.769Z,7.97
2022-10-17T20:19:09.472Z,8.07
2022-10-17T20:21:39.422Z,7.25
2022-10-17T20:24:11.389Z,6.97
2022-10-17T20:26:39.364Z,6.18
2022-10-17T20:29:18.394Z,6.15
2022-10-17T20:31:46.780Z,6.53
2022-10-17T20:34:16.819Z,6.22
2022-10-17T20:36:44.592Z,6.00
2022-10-17T20:39:14.020Z,6.97
2022-10-17T20:41:41.591Z,6.57
2022-10-17T20:44:09.056Z,7.25
2022-10-17T20:46:41.582Z,6.55
2022-10-17T20:49:17.971Z,5.32
2022-10-17T20:51:45.944Z,5.72
2022-10-17T20:54:13.131Z,6.72
2022-10-17T20:56:40.319Z,5.38
2022-10-17T20:59:17.919Z,5.60
2022-10-17T21:01:45.743Z,5.93
2022-10-17T21:04:44.121Z,5.88
2022-10-17T21:07:00.354Z,5.60
2022-10-17T21:09:27.627Z,5.10
2022-10-17T21:11:55.943Z,6.20
2022-10-17T21:14:24.984Z,5.95
2022-10-17T21:16:52.479Z,5.68
2022-10-17T21:19:21.722Z,5.45
2022-10-17T21:21:49.079Z,5.00
2022-10-17T21:24:19.270Z,5.78
2022-10-17T21:26:50.336Z,5.40
2022-10-17T21:29:17.288Z,5.18
2022-10-17T21:31:45.095Z,6.57
2022-10-17T21:34:27.898Z,6.00
2022-10-17T21:36:55.145Z,6.20
2022-10-17T21:39:24.821Z,5.90
2022-10-17T21:41:52.920Z,5.82
2022-10-17T21:44:26.703Z,5.60
2022-10-17T21:46:55.174Z,6.03
2022-10-17T21:49:24.881Z,5.28
2022-10-17T21:51:52.681Z,5.30
2022-10-17T21:54:22.954Z,5.93
2022-10-17T21:56:51.081Z,5.30
2022-10-17T21:59:18.468Z,5.05
2022-10-17T22:01:46.385Z,5.53
2022-10-17T22:04:17.752Z,5.65
2022-10-17T22:06:47.503Z,5.55
2022-10-17T22:09:23.416Z,5.25
2022-10-17T22:11:54.721Z,5.70
2022-10-17T22:14:26.052Z,5.38
2022-10-17T22:16:53.860Z,5.40
2022-10-17T22:19:26.707Z,5.38
2022-10-17T22:21:54.717Z,5.72
2022-10-17T22:24:22.394Z,5.85
2022-10-17T22:26:49.687Z,5.20
2022-10-17T22:29:17.632Z,5.75
2022-10-17T22:31:44.908Z,5.38
2022-10-17T22:34:15.683Z,5.45
2022-10-17T22:36:43.315Z,5.25
2022-10-17T22:39:11.292Z,5.63
2022-10-17T22:41:38.462Z,5.60
2022-10-17T22:44:05.946Z,5.70
2022-10-17T22:46:33.234Z,5.30
2022-10-17T22:49:00.247Z,5.00
2022-10-17T22:51:27.476Z,5.45
2022-10-17T22:53:54.591Z,5.45
2022-10-17T22:56:23.582Z,5.80
2022-10-17T22:58:51.397Z,5.75
2022-10-17T23:01:22.666Z,6.50
2022-10-17T23:03:51.074Z,5.75
2022-10-17T23:06:19.012Z,5.82
2022-10-17T23:08:46.181Z,5.57
2022-10-17T23:11:13.345Z,5.40
2022-10-17T23:13:41.032Z,6.35
2022-10-17T23:16:08.864Z,5.55
2022-10-17T23:18:37.736Z,6.13
2022-10-17T23:21:05.374Z,6.15
2022-10-17T23:23:32.365Z,5.75
2022-10-17T23:26:09.424Z,6.30
2022-10-17T23:28:36.781Z,6.38
2022-10-17T23:31:17.090Z,6.38
2022-10-17T23:33:45.961Z,6.32
2022-10-17T23:36:16.221Z,6.57
2022-10-17T23:38:45.530Z,6.55
2022-10-17T23:41:13.456Z,6.45
2022-10-17T23:43:41.008Z,6.65
2022-10-17T23:46:08.612Z,6.18
2022-10-17T23:48:35.907Z,6.80
2022-10-17T23:51:03.576Z,6.88
2022-10-17T23:53:31.061Z,6.95
2022-10-17T23:55:57.987Z,7.07
2022-10-17T23:58:24.970Z,6.20
